createdAt,value
2023-03-06T12:56:02.017Z,24.80
2023-03-06T12:58:31.936Z,25.13
2023-03-06T13:01:14.024Z,23.80
2023-03-06T13:03:59.751Z,23.83
2023-03-06T13:06:26.604Z,26.33
2023-03-06T13:09:12.301Z,23.70
2023-03-06T13:11:54.403Z,22.77
2023-03-06T13:14:31.064Z,24.73
2023-03-06T13:17:20.774Z,25.98
2023-03-06T13:19:48.784Z,23.90
2023-03-06T13:22:29.525Z,23.73
2023-03-06T13:25:21.155Z,22.90
2023-03-06T13:27:47.988Z,22.30
2023-03-06T13:30:36.767Z,22.17
2023-03-06T13:33:31.507Z,20.92
2023-03-06T13:36:17.117Z,22.98
2023-03-06T13:38:44.031Z,21.13
2023-03-06T13:41:23.242Z,21.67
2023-03-06T13:43:54.978Z,22.30
2023-03-06T13:46:31.728Z,22.23
2023-03-06T13:49:16.639Z,22.00
2023-03-06T13:51:58.152Z,21.58
2023-03-06T13:54:57.310Z,21.83
2023-03-06T13:57:46.628Z,22.00
2023-03-06T14:00:35.307Z,21.58
2023-03-06T14:03:02.171Z,20.20
2023-03-06T14:05:47.000Z,20.88
2023-03-06T14:08:21.067Z,21.05
2023-03-06T14:10:58.024Z,19.27
2023-03-06T14:13:35.159Z,20.77
2023-03-06T14:16:21.500Z,21.17
2023-03-06T14:18:50.891Z,21.38
2023-03-06T14:21:39.600Z,19.40
2023-03-06T14:24:06.582Z,20.60
2023-03-06T14:26:43.481Z,23.25
2023-03-06T14:29:24.978Z,22.42
2023-03-06T14:31:54.807Z,22.42
2023-03-06T14:34:45.552Z,20.45
2023-03-06T14:37:24.758Z,19.75
2023-03-06T14:39:51.916Z,26.95
2023-03-06T14:42:29.017Z,22.33
2023-03-06T14:45:16.427Z,20.55
2023-03-06T14:47:49.263Z,18.58
2023-03-06T14:50:26.453Z,16.38
2023-03-06T14:52:59.518Z,17.63
2023-03-06T14:55:29.841Z,20.90
2023-03-06T14:58:11.844Z,24.52
2023-03-06T15:00:43.722Z,18.90
2023-03-06T15:03:21.510Z,18.60
2023-03-06T15:05:50.430Z,19.25
2023-03-06T15:08:29.652Z,17.23
2023-03-06T15:11:02.474Z,20.02
2023-03-06T15:13:31.552Z,18.85
2023-03-06T15:16:04.649Z,15.80
2023-03-06T15:18:59.271Z,19.90
2023-03-06T15:21:28.637Z,19.63
2023-03-06T15:23:57.543Z,23.77
2023-03-06T15:26:37.089Z,23.95
2023-03-06T15:29:10.847Z,16.92
2023-03-06T15:31:42.734Z,18.40
2023-03-06T15:34:09.592Z,17.50
2023-03-06T15:36:58.243Z,18.02
2023-03-06T15:39:33.014Z,21.75
2023-03-06T15:42:20.264Z,18.10
2023-03-06T15:44:49.907Z,18.70
2023-03-06T15:47:17.496Z,20.73
2023-03-06T15:49:44.662Z,24.73
2023-03-06T15:52:11.826Z,23.33
2023-03-06T15:54:38.692Z,23.27
2023-03-06T15:57:07.333Z,23.10
2023-03-06T15:59:41.583Z,25.00
2023-03-06T16:02:18.268Z,21.65
2023-03-06T16:04:45.916Z,21.27
2023-03-06T16:07:13.512Z,20.60
2023-03-06T16:09:43.802Z,21.00
2023-03-06T16:12:21.498Z,26.63
2023-03-06T16:14:49.679Z,24.33
2023-03-06T16:17:17.595Z,27.65
2023-03-06T16:19:44.640Z,25.45
2023-03-06T16:22:12.099Z,22.73
2023-03-06T16:24:38.938Z,22.77
2023-03-06T16:27:07.263Z,21.88
2023-03-06T16:29:35.197Z,21.70
2023-03-06T16:32:02.510Z,24.67
2023-03-06T16:34:29.550Z,22.63
2023-03-06T16:36:56.663Z,29.48
2023-03-06T16:39:24.589Z,31.77
2023-03-06T16:41:52.096Z,28.85
2023-03-06T16:44:20.041Z,28.65
2023-03-06T16:46:49.701Z,31.98
2023-03-06T16:49:18.629Z,25.60
2023-03-06T16:51:45.781Z,23.35
2023-03-06T16:54:13.321Z,22.88
2023-03-06T16:56:40.204Z,24.05
2023-03-06T16:59:07.374Z,41.67
2023-03-06T17:01:34.398Z,21.92
2023-03-06T17:04:01.294Z,23.00
2023-03-06T17:06:28.718Z,24.23
2023-03-06T17:08:58.249Z,27.08
2023-03-06T17:11:25.184Z,24.33
2023-03-06T17:13:52.259Z,28.38
2023-03-06T17:16:19.326Z,22.92
2023-03-06T17:18:46.480Z,29.70
2023-03-06T17:21:17.487Z,24.40
2023-03-06T17:23:44.791Z,28.63
2023-03-06T17:26:14.760Z,28.95
2023-03-06T17:28:42.556Z,31.17
2023-03-06T17:31:16.515Z,28.40
2023-03-06T17:33:44.427Z,30.08
2023-03-06T17:36:11.969Z,31.63
2023-03-06T17:38:38.946Z,30.98
2023-03-06T17:41:07.687Z,33.72
2023-03-06T17:43:34.652Z,30.08
2023-03-06T17:46:09.894Z,32.10
2023-03-06T17:48:37.329Z,23.85
2023-03-06T17:51:04.745Z,30.42
2023-03-06T17:53:31.693Z,30.27
2023-03-06T17:55:58.679Z,31.27
2023-03-06T17:58:26.696Z,36.72
2023-03-06T18:00:53.583Z,29.75
2023-03-06T18:03:20.565Z,31.08
2023-03-06T18:05:47.552Z,32.05
2023-03-06T18:08:14.512Z,27.08
2023-03-06T18:10:43.421Z,26.08
2023-03-06T18:13:11.026Z,31.73
2023-03-06T18:15:41.422Z,29.02
2023-03-06T18:18:08.889Z,31.73
2023-03-06T18:20:41.269Z,33.55
2023-03-06T18:23:08.363Z,32.20
2023-03-06T18:25:35.644Z,33.67
2023-03-06T18:28:02.516Z,29.63
2023-03-06T18:30:29.361Z,36.40
2023-03-06T18:32:56.377Z,32.63
2023-03-06T18:35:23.250Z,36.83
2023-03-06T18:37:50.075Z,31.20
2023-03-06T18:40:17.096Z,35.90
2023-03-06T18:42:43.976Z,29.73
2023-03-06T18:45:11.842Z,33.10
2023-03-06T18:47:39.822Z,33.63
2023-03-06T18:50:07.241Z,34.95
2023-03-06T18:52:34.991Z,41.20
2023-03-06T18:55:01.896Z,37.53
2023-03-06T18:57:30.295Z,44.15
2023-03-06T18:59:57.369Z,39.25
2023-03-06T19:02:24.332Z,33.15
2023-03-06T19:04:52.894Z,40.60
2023-03-06T19:07:19.947Z,42.55
2023-03-06T19:09:48.374Z,33.75
2023-03-06T19:12:15.820Z,31.38
2023-03-06T19:14:44.296Z,30.23
2023-03-06T19:17:11.265Z,34.70
2023-03-06T19:19:38.337Z,30.35
2023-03-06T19:22:05.311Z,29.75
2023-03-06T19:24:32.462Z,23.48
2023-03-06T19:41:52.669Z,18.35
2023-03-06T19:44:19.800Z,19.60
2023-03-06T19:46:46.672Z,18.90
2023-03-06T19:49:16.974Z,19.73
2023-03-06T19:51:44.554Z,21.65
2023-03-06T19:54:12.758Z,24.33
2023-03-06T19:56:39.965Z,27.58
2023-03-06T19:59:06.919Z,31.10
2023-03-06T20:01:34.502Z,34.45
2023-03-06T20:04:01.909Z,26.05
2023-03-06T20:06:33.721Z,25.15
2023-03-06T20:09:02.395Z,25.52
2023-03-06T20:11:30.212Z,23.80
2023-03-06T20:13:59.074Z,21.83
2023-03-06T20:16:28.107Z,23.90
2023-03-06T20:18:58.875Z,21.02
2023-03-06T20:21:27.977Z,21.90
2023-03-06T20:23:58.025Z,21.10
2023-03-06T20:26:27.182Z,24.60
2023-03-06T20:28:54.982Z,21.33
2023-03-06T20:31:25.883Z,21.08
2023-03-06T20:33:53.982Z,20.45
2023-03-06T20:36:24.149Z,22.80
2023-03-06T20:38:51.558Z,27.48
2023-03-06T20:41:21.099Z,33.10
2023-03-06T20:43:48.732Z,27.38
2023-03-06T20:46:16.406Z,22.67
2023-03-06T20:48:43.773Z,23.20
2023-03-06T20:51:20.810Z,28.50
2023-03-06T20:53:49.291Z,20.73
2023-03-06T20:56:18.446Z,26.40
2023-03-06T20:58:45.432Z,22.60
2023-03-06T21:01:19.064Z,27.02
2023-03-06T21:03:45.977Z,27.50
2023-03-06T21:06:13.029Z,23.48
2023-03-06T21:08:39.933Z,26.48
2023-03-06T21:11:06.972Z,25.25
2023-03-06T21:13:33.897Z,25.17
2023-03-06T21:16:07.421Z,24.60
2023-03-06T21:18:34.411Z,24.40
2023-03-06T21:21:16.531Z,23.90
2023-03-06T21:23:43.486Z,23.75
2023-03-06T21:26:15.749Z,25.15
2023-03-06T21:28:43.523Z,22.35
2023-03-06T21:31:12.761Z,22.77
2023-03-06T21:33:39.739Z,22.65
2023-03-06T21:36:07.194Z,22.52
2023-03-06T21:38:35.247Z,24.88
2023-03-06T21:41:11.072Z,28.10
2023-03-06T21:43:38.344Z,24.92
2023-03-06T21:46:05.570Z,21.52
2023-03-06T21:48:32.780Z,23.73
2023-03-06T21:51:08.679Z,19.77
2023-03-06T21:53:36.306Z,20.95
2023-03-06T21:56:04.286Z,23.73
2023-03-06T21:58:31.876Z,24.52
2023-03-06T22:00:59.094Z,19.88
2023-03-06T22:03:28.688Z,23.85
2023-03-06T22:05:56.829Z,27.48
2023-03-06T22:08:25.274Z,24.08
2023-03-06T22:10:52.182Z,23.00
2023-03-06T22:13:19.494Z,19.05
2023-03-06T22:15:53.565Z,23.55
2023-03-06T22:18:20.533Z,20.35
2023-03-06T22:20:47.441Z,24.67
2023-03-06T22:23:14.604Z,21.50
2023-03-06T22:25:41.497Z,23.92
2023-03-06T22:28:08.585Z,24.60
2023-03-06T22:30:35.699Z,24.50
2023-03-06T22:33:02.632Z,21.98
2023-03-06T22:35:29.472Z,22.30
2023-03-06T22:37:56.425Z,23.52
2023-03-06T22:40:23.439Z,24.05
2023-03-06T22:42:50.362Z,27.13
2023-03-06T22:45:17.319Z,23.88
2023-03-06T22:47:44.261Z,25.52
2023-03-06T22:50:11.823Z,26.60
2023-03-06T22:52:38.873Z,25.17
2023-03-06T22:55:06.738Z,28.13
2023-03-06T22:57:33.690Z,23.60
2023-03-06T23:00:00.616Z,23.65
2023-03-06T23:02:33.199Z,23.90
2023-03-06T23:05:00.121Z,24.98
2023-03-06T23:07:27.209Z,28.50
2023-03-06T23:10:00.637Z,25.83
2023-03-06T23:12:46.466Z,21.75
2023-03-06T23:15:32.576Z,25.65
2023-03-06T23:18:18.194Z,22.73
2023-03-06T23:21:12.796Z,25.63
2023-03-06T23:23:58.043Z,28.47
2023-03-06T23:26:29.231Z,29.40
2023-03-06T23:28:57.765Z,28.48
2023-03-06T23:31:30.043Z,29.88
2023-03-06T23:34:01.925Z,29.88
2023-03-06T23:36:29.845Z,27.73
2023-03-06T23:38:57.388Z,28.63
2023-03-06T23:41:25.384Z,29.08
2023-03-06T23:43:55.161Z,26.25
2023-03-06T23:46:22.484Z,27.85
2023-03-06T23:48:49.661Z,25.33
2023-03-06T23:51:19.509Z,25.60
2023-03-06T23:53:47.782Z,19.27
2023-03-06T23:56:15.526Z,24.50
2023-03-06T23:58:42.641Z,28.42
